Time;durP1;ratioP1;P1;durP2;ratioP2;P2;SDS_P1;SDS_P2;PMS_P1;PMS_P2;Temp;Humidity;BMP_temperature;BMP_pressure;BME280_temperature;BME280_humidity;BME280_pressure;Samples;Min_cycle;Max_cycle;Signal;HPM_P1;HPM_P2
2022/09/19 00:01:13;;;;;;;4.00;3.20;;;10.80;99.90;;;;;;6119900;23;20424;-86
2022/09/19 00:03:41;;;;;;;1.57;0.87;;;10.70;99.90;;;;;;6100329;23;20409;-86
2022/09/19 00:06:09;;;;;;;3.37;1.00;;;10.70;99.90;;;;;;6098576;23;20436;-86
2022/09/19 00:08:37;;;;;;;1.40;0.67;;;10.70;99.90;;;;;;6098282;23;20401;-85
2022/09/19 00:11:06;;;;;;;2.10;0.67;;;10.70;99.90;;;;;;6097809;23;20437;-85
2022/09/19 00:13:35;;;;;;;0.80;0.50;;;10.70;99.90;;;;;;6097043;23;20468;-86
2022/09/19 00:16:02;;;;;;;0.90;0.47;;;10.70;99.90;;;;;;6097952;23;20433;-86
2022/09/19 00:18:30;;;;;;;1.20;0.50;;;10.60;99.90;;;;;;6096798;23;20440;-87
2022/09/19 00:20:57;;;;;;;1.70;0.60;;;10.50;99.90;;;;;;6098653;23;20412;-86
2022/09/19 00:26:11;;;;;;;1.00;0.50;;;10.50;99.90;;;;;;6115416;23;20409;-86
2022/09/19 00:28:38;;;;;;;1.00;0.50;;;10.40;99.90;;;;;;6118498;23;20405;-85
2022/09/19 00:31:06;;;;;;;1.20;0.73;;;10.30;99.90;;;;;;6120251;23;20428;-85
2022/09/19 00:33:35;;;;;;;1.43;0.50;;;10.20;99.90;;;;;;6115086;23;20444;-85
2022/09/19 00:36:03;;;;;;;1.00;0.50;;;10.10;99.90;;;;;;6108073;23;20508;-85
2022/09/19 00:38:31;;;;;;;1.53;0.33;;;10.00;99.90;;;;;;6103513;23;20401;-86
2022/09/19 00:40:59;;;;;;;0.90;0.47;;;10.00;99.90;;;;;;6100866;23;20491;-85
2022/09/19 00:43:44;;;;;;;3.20;0.40;;;10.00;99.90;;;;;;6099880;23;20417;-86
2022/09/19 00:46:11;;;;;;;1.10;0.47;;;9.90;99.90;;;;;;6100518;23;20437;-85
2022/09/19 00:48:41;;;;;;;1.00;0.50;;;9.80;99.90;;;;;;6100239;23;20425;-85
2022/09/19 00:51:11;;;;;;;1.03;0.50;;;9.80;99.90;;;;;;6100174;23;20489;-85
2022/09/19 00:53:38;;;;;;;2.50;0.70;;;9.70;99.90;;;;;;6101766;23;20449;-87
2022/09/19 00:56:06;;;;;;;0.90;0.50;;;9.70;99.90;;;;;;6103623;23;20963;-84
2022/09/19 00:58:35;;;;;;;1.10;0.50;;;9.60;99.90;;;;;;6100105;23;20418;-86
2022/09/19 01:01:02;;;;;;;1.10;0.50;;;9.60;99.90;;;;;;6100260;23;20409;-85
2022/09/19 01:03:29;;;;;;;0.80;0.40;;;9.60;99.90;;;;;;6102566;23;20424;-86
2022/09/19 01:06:20;;;;;;;1.33;0.53;;;9.50;99.90;;;;;;6101560;23;20453;-86
2022/09/19 01:09:11;;;;;;;1.10;0.60;;;9.50;99.90;;;;;;6113693;23;20409;-86
2022/09/19 01:12:01;;;;;;;1.67;0.57;;;9.50;99.90;;;;;;6108370;23;20378;-86
2022/09/19 01:14:43;;;;;;;0.80;0.40;;;9.50;99.90;;;;;;6106478;23;20429;-86
2022/09/19 01:17:16;;;;;;;1.97;0.60;;;9.50;99.90;;;;;;6101321;23;20465;-86
2022/09/19 01:20:24;;;;;;;2.50;0.40;;;9.40;99.90;;;;;;6101179;23;20477;-87
2022/09/19 01:23:17;;;;;;;1.00;0.40;;;9.40;99.90;;;;;;6061084;23;20896;-86
2022/09/19 01:25:53;;;;;;;0.90;0.43;;;9.40;99.90;;;;;;6105622;23;20433;-85
2022/09/19 01:28:24;;;;;;;0.93;0.40;;;9.40;99.90;;;;;;6118534;23;20413;-87
2022/09/19 01:33:39;;;;;;;1.20;0.40;;;9.30;99.90;;;;;;6101021;23;20437;-86
2022/09/19 01:36:09;;;;;;;0.90;0.50;;;9.20;99.90;;;;;;6117418;23;20430;-84
2022/09/19 01:38:38;;;;;;;1.00;0.50;;;9.20;99.90;;;;;;6122314;23;20410;-86
2022/09/19 01:41:08;;;;;;;0.97;0.40;;;9.30;99.90;;;;;;6111472;23;20417;-86
2022/09/19 01:43:36;;;;;;;0.93;0.50;;;9.20;99.90;;;;;;6109827;23;20845;-86
2022/09/19 01:46:08;;;;;;;1.30;0.50;;;9.20;99.90;;;;;;6106690;23;20444;-86
2022/09/19 01:48:46;;;;;;;1.07;0.43;;;9.30;99.90;;;;;;6100043;23;20382;-86
2022/09/19 01:51:30;;;;;;;0.97;0.50;;;9.30;99.90;;;;;;6100258;23;20405;-85
2022/09/19 01:54:10;;;;;;;1.10;0.60;;;9.30;99.90;;;;;;6099902;23;20433;-86
2022/09/19 01:56:44;;;;;;;2.13;0.87;;;9.30;99.90;;;;;;6098882;23;20439;-87
2022/09/19 01:59:23;;;;;;;1.00;0.50;;;9.20;99.90;;;;;;6099482;23;20393;-86
2022/09/19 02:01:55;;;;;;;1.00;0.60;;;9.30;99.90;;;;;;6098208;23;20401;-86
2022/09/19 02:04:25;;;;;;;1.60;1.07;;;9.30;99.90;;;;;;6099134;23;20390;-87
2022/09/19 02:06:56;;;;;;;1.70;0.80;;;9.30;99.90;;;;;;6116481;23;20433;-86
2022/09/19 02:09:30;;;;;;;3.30;0.70;;;9.30;99.90;;;;;;6109777;23;20394;-87
2022/09/19 02:12:01;;;;;;;3.10;0.70;;;9.40;99.90;;;;;;6100307;23;20393;-86
2022/09/19 02:14:34;;;;;;;6.60;0.90;;;9.30;99.90;;;;;;6099521;23;20429;-87
2022/09/19 02:17:05;;;;;;;2.10;1.03;;;9.30;99.90;;;;;;6098979;23;20429;-87
2022/09/19 02:19:37;;;;;;;1.63;0.80;;;9.30;99.90;;;;;;6099350;23;20424;-87
2022/09/19 02:22:08;;;;;;;1.50;0.73;;;9.30;99.90;;;;;;6098846;23;20860;-87
2022/09/19 02:24:38;;;;;;;3.60;1.30;;;9.20;99.90;;;;;;6098646;23;20402;-87
2022/09/19 02:27:10;;;;;;;2.10;0.80;;;9.30;99.90;;;;;;6097488;23;20496;-88
2022/09/19 02:29:45;;;;;;;2.13;0.77;;;9.20;99.90;;;;;;6113604;23;20492;-88
2022/09/19 02:32:13;;;;;;;2.67;0.80;;;9.20;99.90;;;;;;6098238;23;20396;-88
2022/09/19 02:34:43;;;;;;;3.47;0.87;;;9.10;99.90;;;;;;6098632;23;20444;-88
2022/09/19 02:37:20;;;;;;;6.83;2.50;;;9.10;99.90;;;;;;6100196;23;20848;-88
2022/09/19 02:39:50;;;;;;;4.60;1.70;;;9.30;99.90;;;;;;6100348;23;20446;-86
2022/09/19 02:42:22;;;;;;;1.77;1.07;;;9.20;99.90;;;;;;6099661;23;20448;-86
2022/09/19 02:45:06;;;;;;;1.23;0.80;;;9.20;99.90;;;;;;6098418;23;20856;-86
2022/09/19 02:47:39;;;;;;;1.87;1.30;;;9.20;99.90;;;;;;6116077;23;20445;-85
2022/09/19 02:50:12;;;;;;;1.80;0.90;;;9.30;99.90;;;;;;6114419;23;20398;-85
2022/09/19 02:52:41;;;;;;;4.57;1.00;;;9.40;99.90;;;;;;6101302;23;20873;-86
2022/09/19 02:55:12;;;;;;;1.40;0.83;;;9.40;99.90;;;;;;6106787;23;20429;-86
2022/09/19 02:57:41;;;;;;;3.03;0.93;;;9.50;99.90;;;;;;6116347;23;20390;-86
2022/09/19 03:00:13;;;;;;;2.37;0.90;;;9.40;99.90;;;;;;6100264;23;20416;-87
2022/09/19 03:02:43;;;;;;;2.30;0.80;;;9.40;99.90;;;;;;6099522;23;20437;-86
2022/09/19 03:05:14;;;;;;;1.70;0.80;;;9.40;99.90;;;;;;6101987;23;20394;-86
2022/09/19 03:07:45;;;;;;;2.93;0.77;;;9.40;99.90;;;;;;6103330;23;20402;-86
2022/09/19 03:10:15;;;;;;;2.33;1.00;;;9.40;99.90;;;;;;6118436;23;20759;-86
2022/09/19 03:12:47;;;;;;;3.63;1.33;;;9.40;99.90;;;;;;6121468;23;20405;-86
2022/09/19 03:17:52;;;;;;;1.57;0.80;;;9.60;99.90;;;;;;6187583;23;20452;-86
2022/09/19 03:20:22;;;;;;;3.70;1.00;;;9.60;99.90;;;;;;6188796;23;20413;-86
2022/09/19 03:22:49;;;;;;;2.03;0.90;;;9.60;99.90;;;;;;6188970;23;20410;-86
2022/09/19 03:25:16;;;;;;;3.10;1.17;;;9.70;99.90;;;;;;6189928;23;20470;-85
2022/09/19 03:27:44;;;;;;;3.10;1.03;;;9.70;99.90;;;;;;6210741;23;20446;-85
2022/09/19 03:30:13;;;;;;;3.77;0.80;;;9.80;99.90;;;;;;6197433;23;20496;-86
2022/09/19 03:32:41;;;;;;;5.43;1.10;;;9.80;99.90;;;;;;6199842;23;20402;-84
2022/09/19 03:35:11;;;;;;;4.27;1.53;;;9.90;99.90;;;;;;6200172;23;21046;-86
2022/09/19 03:37:37;;;;;;;9.93;1.50;;;10.00;99.90;;;;;;6189129;23;20515;-85
2022/09/19 03:40:05;;;;;;;1.63;0.90;;;10.10;99.90;;;;;;6187969;23;20413;-86
2022/09/19 03:42:35;;;;;;;3.60;1.17;;;10.10;99.90;;;;;;6189397;23;20398;-85
2022/09/19 03:45:02;;;;;;;5.23;1.50;;;10.10;99.90;;;;;;6193753;23;20428;-86
2022/09/19 03:47:28;;;;;;;3.33;1.47;;;10.20;99.90;;;;;;6209524;23;20421;-85
2022/09/19 03:49:55;;;;;;;2.63;0.87;;;10.20;99.90;;;;;;6208847;23;20394;-86
2022/09/19 03:52:24;;;;;;;3.70;0.90;;;10.20;99.90;;;;;;6190713;23;20403;-86
2022/09/19 03:54:50;;;;;;;3.00;1.07;;;10.30;99.90;;;;;;6190901;23;20441;-87
2022/09/19 03:57:18;;;;;;;3.17;1.40;;;10.40;99.90;;;;;;6201203;23;20426;-86
2022/09/19 03:59:45;;;;;;;5.07;1.13;;;10.40;99.90;;;;;;6196350;23;20375;-86
2022/09/19 04:02:13;;;;;;;4.07;1.23;;;10.40;99.90;;;;;;6190982;23;20790;-85
2022/09/19 04:04:40;;;;;;;2.60;1.47;;;10.40;99.90;;;;;;6192896;23;20398;-86
2022/09/19 04:07:07;;;;;;;3.63;1.23;;;10.50;99.90;;;;;;6189931;23;20486;-86
2022/09/19 04:09:35;;;;;;;4.07;1.50;;;10.50;99.90;;;;;;6188910;23;20419;-87
2022/09/19 04:12:03;;;;;;;4.40;1.97;;;10.50;99.90;;;;;;6189339;23;20410;-87
2022/09/19 04:14:30;;;;;;;3.63;1.03;;;10.50;99.90;;;;;;6189170;23;20885;-87
2022/09/19 04:16:57;;;;;;;9.63;1.50;;;10.60;99.90;;;;;;6187522;23;20498;-86
2022/09/19 04:19:25;;;;;;;3.33;1.90;;;10.60;99.90;;;;;;6189546;23;20410;-86
2022/09/19 04:21:52;;;;;;;6.53;1.80;;;10.70;99.90;;;;;;6189359;23;20424;-85
2022/09/19 04:24:21;;;;;;;7.80;2.10;;;10.70;99.90;;;;;;6189486;23;20406;-86
2022/09/19 04:26:49;;;;;;;6.73;1.97;;;10.70;99.90;;;;;;6189553;23;20441;-86
2022/09/19 04:29:19;;;;;;;2.97;1.00;;;10.80;99.90;;;;;;6190020;23;20414;-85
2022/09/19 04:31:46;;;;;;;4.50;1.20;;;10.80;99.90;;;;;;6189934;23;20409;-87
2022/09/19 04:34:14;;;;;;;2.23;1.00;;;10.80;99.90;;;;;;6189392;23;20780;-86
2022/09/19 04:36:41;;;;;;;3.83;1.63;;;10.80;99.90;;;;;;6189418;23;20430;-86
2022/09/19 04:39:08;;;;;;;6.87;1.30;;;10.90;99.90;;;;;;6191203;23;20417;-87
2022/09/19 04:41:35;;;;;;;4.40;1.40;;;10.90;99.90;;;;;;6189077;23;20414;-87
2022/09/19 04:44:04;;;;;;;3.03;1.33;;;10.90;99.90;;;;;;6192997;23;20412;-88
2022/09/19 04:46:32;;;;;;;8.50;1.40;;;11.00;99.90;;;;;;6207923;23;20457;-86
2022/09/19 04:48:59;;;;;;;3.33;1.87;;;11.00;99.90;;;;;;6207079;23;20425;-87
2022/09/19 04:51:31;;;;;;;6.23;1.90;;;11.00;99.90;;;;;;6211140;23;20410;-86
2022/09/19 04:53:59;;;;;;;5.50;1.30;;;11.00;99.90;;;;;;6195005;23;20430;-86
2022/09/19 04:56:27;;;;;;;3.07;1.20;;;11.00;99.90;;;;;;6193382;23;20517;-87
2022/09/19 04:58:54;;;;;;;5.17;0.90;;;10.90;99.90;;;;;;6194411;23;20410;-86
2022/09/19 05:01:24;;;;;;;6.43;1.83;;;11.00;99.90;;;;;;6190805;23;20415;-87
2022/09/19 05:03:51;;;;;;;5.90;1.57;;;11.00;99.90;;;;;;6189341;23;20470;-87
2022/09/19 05:06:18;;;;;;;4.90;1.53;;;11.00;99.90;;;;;;6189081;23;20441;-87
2022/09/19 05:08:45;;;;;;;4.73;1.13;;;11.00;99.90;;;;;;6192010;23;20402;-87
2022/09/19 05:11:12;;;;;;;6.80;1.50;;;11.10;99.90;;;;;;6190079;23;20513;-87
2022/09/19 05:13:40;;;;;;;5.17;2.10;;;11.10;99.90;;;;;;6189711;23;20395;-87
2022/09/19 05:16:08;;;;;;;5.83;1.23;;;11.10;99.90;;;;;;6186895;23;20456;-87
2022/09/19 05:18:37;;;;;;;4.43;1.90;;;11.10;99.90;;;;;;6194628;23;20433;-86
2022/09/19 05:21:06;;;;;;;5.97;1.73;;;11.10;99.90;;;;;;6210028;23;20421;-86
2022/09/19 05:23:34;;;;;;;6.70;1.63;;;11.20;99.90;;;;;;6209550;23;20375;-87
2022/09/19 05:26:05;;;;;;;4.80;2.13;;;11.20;99.90;;;;;;6207256;23;20460;-86
2022/09/19 05:28:31;;;;;;;6.23;2.03;;;11.20;99.90;;;;;;6208309;23;20401;-85
2022/09/19 05:31:04;;;;;;;9.50;1.90;;;11.20;99.90;;;;;;6209463;23;20401;-85
2022/09/19 05:33:31;;;;;;;5.13;1.60;;;11.30;99.90;;;;;;6193545;23;20485;-87
2022/09/19 05:36:01;;;;;;;5.60;2.20;;;11.30;99.90;;;;;;6193753;23;20527;-86
2022/09/19 05:38:28;;;;;;;4.33;1.80;;;11.40;99.90;;;;;;6188638;23;20916;-86
2022/09/19 05:40:56;;;;;;;5.97;1.70;;;11.30;99.90;;;;;;6187662;23;20415;-87
2022/09/19 05:43:24;;;;;;;5.70;2.00;;;11.40;99.90;;;;;;6189602;23;20414;-86
2022/09/19 05:45:51;;;;;;;7.07;1.70;;;11.40;99.90;;;;;;6189114;23;20441;-87
2022/09/19 05:48:18;;;;;;;4.27;1.67;;;11.50;99.90;;;;;;6187090;23;20406;-86
2022/09/19 05:50:45;;;;;;;5.77;2.40;;;11.40;99.90;;;;;;6186910;23;20912;-87
2022/09/19 05:55:59;;;;;;;6.17;1.77;;;11.50;99.90;;;;;;6188677;23;20449;-85
2022/09/19 05:58:27;;;;;;;5.40;1.80;;;11.60;99.90;;;;;;6187671;23;20390;-86
2022/09/19 06:00:55;;;;;;;7.10;1.97;;;11.60;99.90;;;;;;6188148;23;20438;-85
2022/09/19 06:03:22;;;;;;;8.17;1.80;;;11.60;99.90;;;;;;6188762;23;20441;-86
2022/09/19 06:05:51;;;;;;;10.37;1.90;;;11.70;99.90;;;;;;6190452;23;20422;-85
2022/09/19 06:08:21;;;;;;;6.70;1.77;;;11.70;99.90;;;;;;6191660;23;20417;-85
2022/09/19 06:10:48;;;;;;;4.67;1.60;;;11.70;99.90;;;;;;6190686;23;20413;-86
2022/09/19 06:13:17;;;;;;;9.60;1.83;;;11.80;99.90;;;;;;6191048;23;20787;-87
2022/09/19 06:15:43;;;;;;;3.43;1.73;;;11.90;99.90;;;;;;6190663;23;20450;-87
2022/09/19 06:18:11;;;;;;;5.53;2.00;;;12.00;99.90;;;;;;6197682;23;20415;-87
2022/09/19 06:20:38;;;;;;;9.00;2.10;;;12.00;99.90;;;;;;6192669;23;20506;-87
2022/09/19 06:23:06;;;;;;;7.03;1.77;;;12.00;99.90;;;;;;6188362;23;20410;-85
2022/09/19 06:25:35;;;;;;;4.77;1.57;;;12.10;99.90;;;;;;6188668;23;20951;-87
2022/09/19 06:28:05;;;;;;;4.60;1.73;;;12.10;99.90;;;;;;6203955;23;20430;-85
2022/09/19 06:30:33;;;;;;;7.57;2.00;;;12.20;99.90;;;;;;6192903;23;20414;-86
2022/09/19 06:33:00;;;;;;;7.90;1.60;;;12.30;99.90;;;;;;6189917;23;20418;-87
2022/09/19 06:35:28;;;;;;;6.63;2.70;;;12.30;99.90;;;;;;6189893;23;20450;-86
2022/09/19 06:37:59;;;;;;;23.03;2.43;;;12.40;99.90;;;;;;6199328;23;20419;-84
2022/09/19 06:40:26;;;;;;;7.10;1.93;;;12.50;99.90;;;;;;6195962;23;20405;-85
2022/09/19 06:43:01;;;;;;;5.63;1.63;;;12.60;99.90;;;;;;6199314;23;20457;-85
2022/09/19 06:45:28;;;;;;;6.40;2.30;;;12.60;99.90;;;;;;6191371;23;20549;-85
2022/09/19 06:47:59;;;;;;;6.60;2.10;;;12.70;99.90;;;;;;6188637;23;20406;-86
2022/09/19 06:50:26;;;;;;;7.33;1.90;;;12.70;99.90;;;;;;6188709;23;20391;-85
2022/09/19 06:52:53;;;;;;;7.60;1.90;;;12.70;99.90;;;;;;6188191;23;20411;-87
2022/09/19 06:55:23;;;;;;;6.67;1.80;;;12.80;99.90;;;;;;6190335;23;20457;-86
2022/09/19 06:57:55;;;;;;;5.20;2.00;;;12.90;99.90;;;;;;6191381;23;20440;-85
2022/09/19 07:00:25;;;;;;;4.50;2.10;;;13.00;99.90;;;;;;6187938;23;20398;-86
2022/09/19 07:02:54;;;;;;;8.57;1.87;;;13.00;99.90;;;;;;6211728;23;20414;-86
2022/09/19 07:05:21;;;;;;;6.80;3.23;;;13.00;99.90;;;;;;6195726;23;20402;-86
2022/09/19 07:07:51;;;;;;;12.40;2.60;;;13.00;99.90;;;;;;6187436;23;20414;-86
2022/09/19 07:10:19;;;;;;;4.47;1.40;;;13.00;99.90;;;;;;6186796;23;20872;-86
2022/09/19 07:12:51;;;;;;;5.90;2.03;;;12.90;99.90;;;;;;6186858;23;20410;-86
2022/09/19 07:15:18;;;;;;;5.80;1.90;;;12.90;99.90;;;;;;6186171;23;20434;-86
2022/09/19 07:17:46;;;;;;;6.00;2.10;;;12.90;99.90;;;;;;6187494;23;20476;-85
2022/09/19 07:20:13;;;;;;;5.63;2.13;;;12.90;99.90;;;;;;6199284;23;20395;-84
2022/09/19 07:22:40;;;;;;;3.73;1.50;;;12.90;99.90;;;;;;6207707;23;20406;-86
2022/09/19 07:25:08;;;;;;;10.37;1.90;;;13.00;99.90;;;;;;6188897;23;20408;-85
2022/09/19 07:27:34;;;;;;;8.60;1.80;;;13.10;99.90;;;;;;6186581;23;20410;-86
2022/09/19 07:30:01;;;;;;;7.20;2.20;;;13.20;99.90;;;;;;6188382;23;20480;-87
2022/09/19 07:32:28;;;;;;;5.57;1.87;;;13.10;99.90;;;;;;6188424;23;20394;-86
2022/09/19 07:34:56;;;;;;;9.63;2.10;;;13.10;99.90;;;;;;6189287;23;20449;-86
2022/09/19 07:37:23;;;;;;;8.57;2.20;;;13.10;99.90;;;;;;6195797;23;20501;-85
2022/09/19 07:39:50;;;;;;;9.13;2.90;;;13.20;99.90;;;;;;6189417;23;20410;-89
2022/09/19 07:42:16;;;;;;;11.63;3.60;;;13.20;99.90;;;;;;6191563;23;20397;-86
2022/09/19 07:44:43;;;;;;;5.13;2.37;;;13.10;99.90;;;;;;6192412;23;20409;-87
2022/09/19 07:47:28;;;;;;;9.20;2.37;;;13.30;99.90;;;;;;6202482;23;20437;-87
2022/09/19 07:49:57;;;;;;;7.50;3.73;;;13.40;99.90;;;;;;6193750;23;20417;-87
2022/09/19 07:52:24;;;;;;;5.60;2.07;;;13.50;99.90;;;;;;6209133;23;20379;-88
2022/09/19 07:54:51;;;;;;;4.60;2.33;;;13.60;99.90;;;;;;6204066;23;20977;-87
2022/09/19 07:57:18;;;;;;;7.23;2.43;;;13.60;99.90;;;;;;6193215;23;20422;-87
2022/09/19 07:59:47;;;;;;;6.40;2.20;;;13.70;99.90;;;;;;6189188;23;20391;-88
2022/09/19 08:02:14;;;;;;;10.40;2.20;;;13.70;99.90;;;;;;6190647;23;20413;-87
2022/09/19 08:04:42;;;;;;;7.63;2.13;;;13.80;99.90;;;;;;6207807;23;20386;-86
2022/09/19 08:07:10;;;;;;;4.57;1.77;;;13.90;99.90;;;;;;6194950;23;20441;-88
2022/09/19 08:09:36;;;;;;;7.57;2.00;;;14.00;99.90;;;;;;6190776;23;20406;-87
2022/09/19 08:12:04;;;;;;;8.30;2.30;;;14.00;99.90;;;;;;6189321;23;20386;-86
2022/09/19 08:14:31;;;;;;;9.50;2.60;;;14.10;99.90;;;;;;6189487;23;20408;-87
2022/09/19 08:16:58;;;;;;;5.00;1.70;;;14.10;99.90;;;;;;6188666;23;20940;-88
2022/09/19 08:19:25;;;;;;;7.97;2.30;;;14.20;99.90;;;;;;6197410;23;20389;-87
2022/09/19 08:21:52;;;;;;;3.93;1.60;;;14.10;99.90;;;;;;6212841;23;20407;-88
2022/09/19 08:24:22;;;;;;;5.43;2.30;;;14.10;99.90;;;;;;6206362;23;20394;-88
2022/09/19 08:26:50;;;;;;;4.33;2.30;;;14.20;99.90;;;;;;6211853;23;20828;-84
2022/09/19 08:29:17;;;;;;;6.87;2.53;;;14.20;99.90;;;;;;6211281;23;20414;-86
2022/09/19 08:31:44;;;;;;;4.60;1.97;;;14.20;99.90;;;;;;6198356;23;20402;-87
2022/09/19 08:34:11;;;;;;;5.13;2.30;;;14.20;99.90;;;;;;6199604;23;20417;-85
2022/09/19 08:36:40;;;;;;;6.67;2.07;;;14.30;99.90;;;;;;6212585;23;20505;-85
2022/09/19 08:39:06;;;;;;;8.37;2.93;;;14.60;99.90;;;;;;6202383;23;20422;-86
2022/09/19 08:41:52;;;;;;;7.30;2.50;;;15.00;99.90;;;;;;6197495;23;20406;-86
2022/09/19 08:44:26;;;;;;;7.00;2.50;;;15.10;99.90;;;;;;6193647;23;20397;-87
2022/09/19 08:46:59;;;;;;;12.07;2.80;;;15.10;99.90;;;;;;6190022;23;20422;-88
2022/09/19 08:49:31;;;;;;;7.77;2.77;;;15.10;99.90;;;;;;6187950;23;20403;-87
2022/09/19 08:52:01;;;;;;;9.90;1.90;;;15.30;99.90;;;;;;6189997;23;20401;-85
2022/09/19 08:54:32;;;;;;;6.10;1.80;;;15.30;99.90;;;;;;6189661;23;20916;-85
2022/09/19 08:57:01;;;;;;;6.57;2.53;;;15.40;99.90;;;;;;6187972;23;20509;-86
2022/09/19 08:59:33;;;;;;;6.13;2.50;;;15.40;99.90;;;;;;6188774;23;20414;-86
2022/09/19 09:02:08;;;;;;;4.97;2.10;;;15.50;99.90;;;;;;6189216;23;20391;-86
2022/09/19 09:04:41;;;;;;;8.30;2.80;;;15.50;99.90;;;;;;6198934;23;20377;-88
2022/09/19 09:07:21;;;;;;;8.27;2.30;;;15.40;99.90;;;;;;6212410;23;20445;-81
2022/09/19 09:10:02;;;;;;;7.97;2.33;;;15.20;99.90;;;;;;6210932;23;20381;-85
2022/09/19 09:12:44;;;;;;;8.50;2.10;;;15.00;99.90;;;;;;6189625;23;20720;-86
2022/09/19 09:15:20;;;;;;;6.57;2.20;;;14.90;99.90;;;;;;6189662;23;20445;-86
2022/09/19 09:17:58;;;;;;;6.77;3.30;;;14.80;99.90;;;;;;6190202;23;20452;-86
2022/09/19 09:20:41;;;;;;;7.17;2.30;;;14.80;99.90;;;;;;6192029;23;20394;-86
2022/09/19 09:23:15;;;;;;;4.50;2.40;;;14.80;99.90;;;;;;6191421;23;20478;-87
2022/09/19 09:25:47;;;;;;;11.00;2.37;;;14.90;99.90;;;;;;6190119;23;20434;-85
2022/09/19 09:28:20;;;;;;;5.20;2.20;;;14.90;99.90;;;;;;6190945;23;20398;-86
2022/09/19 09:30:50;;;;;;;6.73;2.63;;;14.90;99.90;;;;;;6191920;23;20456;-86
2022/09/19 09:33:23;;;;;;;5.80;2.50;;;14.90;99.90;;;;;;6189794;23;20417;-85
2022/09/19 09:35:55;;;;;;;6.00;2.00;;;14.90;99.90;;;;;;6195407;23;20442;-85
2022/09/19 09:38:30;;;;;;;5.20;2.33;;;15.00;99.90;;;;;;6195560;23;20399;-81
2022/09/19 09:43:59;;;;;;;5.20;2.33;;;15.30;99.90;;;;;;6208790;23;20378;-85
2022/09/19 09:46:33;;;;;;;4.47;1.77;;;15.20;99.90;;;;;;6202521;23;20933;-87
2022/09/19 09:49:01;;;;;;;5.70;2.67;;;15.30;99.90;;;;;;6189240;23;20411;-89
2022/09/19 09:52:09;;;;;;;4.10;2.17;;;15.30;99.90;;;;;;6198184;23;20375;-91
2022/09/19 09:57:56;;;;;;;9.10;2.20;;;15.10;99.90;;;;;;6179319;23;20458;-90
2022/09/19 10:03:38;;;;;;;5.67;2.50;;;15.00;99.90;;;;;;6167893;23;20440;-92
2022/09/19 10:06:11;;;;;;;5.83;2.30;;;15.10;99.90;;;;;;6175219;23;20434;-83
2022/09/19 10:09:05;;;;;;;7.97;2.60;;;15.30;99.90;;;;;;6182981;23;20414;-84
2022/09/19 10:11:39;;;;;;;8.10;2.20;;;16.10;99.90;;;;;;6183262;23;20392;-82
2022/09/19 10:14:08;;;;;;;4.40;2.27;;;18.00;99.50;;;;;;6181996;23;20463;-82
2022/09/19 10:16:37;;;;;;;7.80;2.20;;;20.70;93.90;;;;;;6178659;23;20451;-84
2022/09/19 10:19:13;;;;;;;7.40;2.07;;;22.30;85.50;;;;;;6166714;23;20418;-82
2022/09/19 10:21:40;;;;;;;6.47;4.13;;;22.40;78.90;;;;;;6177016;23;20375;-81
2022/09/19 10:24:50;;;;;;;4.47;2.63;;;21.10;77.90;;;;;;6173883;23;20431;-82
2022/09/19 10:27:23;;;;;;;4.00;1.70;;;20.50;79.20;;;;;;6169443;23;20434;-82
2022/09/19 10:29:53;;;;;;;8.73;2.10;;;19.60;82.50;;;;;;6173059;23;20404;-85
2022/09/19 10:32:24;;;;;;;4.97;2.10;;;19.10;85.00;;;;;;6162267;23;20396;-83
2022/09/19 10:34:51;;;;;;;6.00;2.17;;;18.80;87.20;;;;;;6160863;23;20407;-83
2022/09/19 10:37:20;;;;;;;5.93;2.10;;;18.50;88.60;;;;;;6158267;23;20965;-83
2022/09/19 10:39:48;;;;;;;8.43;2.43;;;18.30;89.40;;;;;;6160513;23;20428;-83
2022/09/19 10:42:37;;;;;;;7.47;2.00;;;18.20;90.20;;;;;;6157104;23;20973;-85
2022/09/19 10:45:19;;;;;;;5.90;2.50;;;18.10;90.30;;;;;;6161758;23;20407;-84
2022/09/19 10:47:48;;;;;;;5.33;2.10;;;18.10;91.00;;;;;;6158204;23;20401;-83
2022/09/19 10:50:18;;;;;;;7.30;3.00;;;18.30;90.70;;;;;;6158958;23;20411;-84
2022/09/19 10:52:46;;;;;;;4.50;2.63;;;18.60;90.80;;;;;;6157703;23;20415;-84
2022/09/19 10:55:20;;;;;;;5.60;2.23;;;18.80;90.40;;;;;;6158815;23;20477;-84
2022/09/19 10:57:53;;;;;;;6.60;2.40;;;18.80;90.30;;;;;;6134249;23;20937;-84
2022/09/19 11:00:25;;;;;;;4.60;1.87;;;19.40;90.30;;;;;;6134893;23;20396;-84
2022/09/19 11:03:06;;;;;;;10.30;2.20;;;21.40;85.90;;;;;;6131941;23;20811;-83
2022/09/19 11:05:36;;;;;;;4.43;2.53;;;24.00;76.90;;;;;;6131553;23;20735;-84
2022/09/19 11:08:05;;;;;;;2.73;1.60;;;25.00;70.40;;;;;;6129382;23;20396;-90
2022/09/19 11:10:39;;;;;;;4.50;2.17;;;24.30;69.00;;;;;;6129707;23;20413;-85
2022/09/19 11:13:11;;;;;;;7.37;2.80;;;22.40;71.20;;;;;;6128777;23;20929;-83
2022/09/19 11:15:51;;;;;;;4.90;1.87;;;21.10;75.20;;;;;;6133930;23;20950;-82
2022/09/19 11:18:28;;;;;;;6.93;2.30;;;20.00;78.90;;;;;;6134716;23;20883;-83
2022/09/19 11:21:05;;;;;;;7.23;1.80;;;19.20;82.70;;;;;;6133900;23;20388;-83
2022/09/19 11:23:56;;;;;;;5.63;1.80;;;18.60;85.10;;;;;;6137725;23;20380;-82
2022/09/19 11:26:35;;;;;;;4.03;2.00;;;18.00;88.10;;;;;;6139568;23;20432;-83
2022/09/19 11:29:29;;;;;;;5.43;2.03;;;17.60;90.90;;;;;;6136400;23;20392;-83
2022/09/19 11:32:06;;;;;;;4.07;2.03;;;17.50;91.40;;;;;;6135548;23;20929;-85
2022/09/19 11:34:43;;;;;;;6.93;1.87;;;17.50;91.90;;;;;;6135104;23;20834;-82
2022/09/19 11:37:27;;;;;;;9.03;3.03;;;17.60;92.00;;;;;;6135539;23;20451;-82
2022/09/19 11:40:07;;;;;;;4.27;2.63;;;17.40;91.80;;;;;;6147065;23;20403;-82
2022/09/19 11:42:48;;;;;;;4.03;2.07;;;17.30;92.30;;;;;;6146164;23;20868;-85
2022/09/19 11:45:17;;;;;;;5.47;2.13;;;17.10;92.80;;;;;;6135357;23;20442;-85
2022/09/19 11:48:11;;;;;;;3.30;1.40;;;16.80;93.20;;;;;;6149169;23;20447;-82
2022/09/19 11:50:59;;;;;;;4.43;2.33;;;16.80;93.40;;;;;;6152467;23;20398;-83
2022/09/19 11:53:42;;;;;;;4.70;2.17;;;16.90;93.90;;;;;;6149562;23;20397;-81
2022/09/19 11:56:36;;;;;;;4.70;2.40;;;17.00;93.20;;;;;;6144115;23;20456;-82
2022/09/19 11:59:15;;;;;;;4.63;1.90;;;17.20;93.10;;;;;;6135517;23;20396;-82
2022/09/19 12:01:56;;;;;;;3.47;1.80;;;17.10;93.30;;;;;;6136520;23;20392;-82
2022/09/19 12:04:35;;;;;;;3.80;1.90;;;17.20;93.80;;;;;;6143760;23;20380;-82
2022/09/19 12:07:25;;;;;;;4.80;2.23;;;17.30;93.80;;;;;;6149575;23;20523;-82
2022/09/19 12:09:59;;;;;;;4.50;1.97;;;17.40;93.70;;;;;;6149388;23;20395;-82
2022/09/19 12:12:30;;;;;;;2.33;1.50;;;17.40;93.80;;;;;;6151995;23;20409;-83
2022/09/19 12:15:05;;;;;;;3.40;1.50;;;17.50;94.10;;;;;;6152245;23;20433;-81
2022/09/19 12:17:42;;;;;;;4.00;1.30;;;17.60;93.90;;;;;;6152550;23;20511;-87
2022/09/19 12:20:18;;;;;;;3.20;1.60;;;18.00;94.00;;;;;;6146161;23;20392;-85
2022/09/19 12:22:51;;;;;;;3.90;1.77;;;18.60;92.80;;;;;;6134446;23;20471;-85
2022/09/19 12:25:20;;;;;;;3.03;1.47;;;18.70;92.00;;;;;;6135084;23;20425;-84
2022/09/19 12:27:52;;;;;;;3.53;1.60;;;19.00;91.80;;;;;;6133246;23;20725;-85
2022/09/19 12:30:22;;;;;;;3.43;1.70;;;19.30;91.20;;;;;;6134148;23;20393;-85
2022/09/19 12:32:56;;;;;;;2.60;1.20;;;19.40;90.60;;;;;;6136960;23;20394;-85
2022/09/19 12:35:30;;;;;;;4.30;1.63;;;20.30;88.60;;;;;;6143221;23;20429;-86
2022/09/19 12:38:08;;;;;;;3.97;1.60;;;21.60;86.40;;;;;;6151405;23;20424;-87
2022/09/19 12:40:44;;;;;;;4.97;1.73;;;22.80;79.90;;;;;;6150889;23;20392;-85
2022/09/19 12:43:18;;;;;;;5.40;1.80;;;22.80;77.30;;;;;;6134737;23;20396;-85
2022/09/19 12:45:53;;;;;;;3.03;1.93;;;23.00;76.10;;;;;;6133312;23;20432;-86
2022/09/19 12:48:29;;;;;;;3.87;1.63;;;23.10;73.50;;;;;;6134320;23;20416;-85
2022/09/19 12:50:58;;;;;;;3.40;1.30;;;22.70;72.80;;;;;;6133845;23;20480;-84
2022/09/19 12:53:32;;;;;;;2.73;1.30;;;22.10;72.90;;;;;;6133838;23;20483;-84
2022/09/19 12:56:06;;;;;;;2.77;1.30;;;21.80;74.70;;;;;;6138476;23;20441;-84
2022/09/19 12:58:39;;;;;;;2.63;1.30;;;21.60;74.30;;;;;;6150445;23;20423;-84
2022/09/19 13:01:19;;;;;;;3.20;1.50;;;21.30;74.70;;;;;;6145671;23;20389;-86
2022/09/19 13:03:51;;;;;;;2.70;1.30;;;21.10;75.70;;;;;;6146071;23;20443;-85
2022/09/19 13:06:24;;;;;;;3.67;1.67;;;20.70;77.50;;;;;;6139568;23;20428;-85
2022/09/19 13:08:55;;;;;;;5.30;1.70;;;20.40;78.90;;;;;;6136613;23;20487;-85
2022/09/19 13:11:28;;;;;;;4.80;1.70;;;20.60;79.40;;;;;;6135480;23;20401;-85
2022/09/19 13:14:00;;;;;;;5.70;1.90;;;22.10;77.70;;;;;;6146346;23;20387;-86
2022/09/19 13:16:30;;;;;;;5.37;2.60;;;24.10;70.60;;;;;;6146001;23;20455;-86
2022/09/19 13:24:39;;;;;;;3.03;2.20;;;23.60;67.80;;;;;;6133524;23;20431;-86
2022/09/19 13:27:06;;;;;;;3.70;2.27;;;22.70;69.40;;;;;;6134354;23;20427;-87
2022/09/19 13:29:49;;;;;;;5.17;1.60;;;22.00;71.90;;;;;;6134756;23;20401;-86
2022/09/19 13:32:34;;;;;;;6.63;4.17;;;21.90;71.50;;;;;;6135105;23;20401;-86
2022/09/19 13:35:15;;;;;;;4.77;1.73;;;21.90;70.50;;;;;;6135265;23;20943;-86
2022/09/19 13:37:51;;;;;;;3.60;1.83;;;22.00;70.50;;;;;;6143583;23;20432;-84